Shandon, California
Current Conditions -  °F | °C
As of 6:53 AM on Saturday 25 Oct 2014 (Local Time) from KPRB Reporting Station
Clear Clear  
Wind Chill: 47°   Ceiling: Unl
Heat Index: 47°   Visibility: 10mi
Dew Point: 44°   Wind: 3mph
Humidity: 90%   Direction: 150°SSE
Pressure: 30.05"   Gusts: NA
Location:  35.66°N, 120.38°W
Report Text: KPRB 251353Z AUTO 15003KT 10SM CLR 08/07 A3005 RMK AO2 SLP172 T00830067 TSNO
Loading
Personal Weather Stations






























Interactive Weather Map
Tropical Storm Tracking
New forecast layout! Learn more

10-Day Weather Forecast

Advertisements
Track Severe Weather on mobile